»·PEaware :: N27JP KAVX-KSAN

N27JP :: KAVX-KSAN

FLIGHT INFORMATION

Flight Status: Arrived
Operator: Privately registered:
United States
More flights under this callsign
Pilot: Weston J. (31543)
Aircraft: CESSNA 172 SKYHAWK
(C172)
More flights by this aircraft type
Origin: KAVX Catalina
United States
Destination: KSAN San Diego Intl-Lindbergh
United States
More flights between these airports :: More routes between these airports
Route: SXC V208 OCN V23 MZB
File this flight plan on PilotEdge
Remarks:
Altitude:
(Current/Filed)
5,000ft
Speed:
(Current/Filed)
110kts
Departed: 30-Dec-20 06:23 PM
Arrived: 30-Dec-20 07:26 PM
Distance/Time
Traveled:
74nm/1:03
Distance/Time
To Go:
Arrived

Flight Plot

Page will automatically refresh every two minutes.


Map Options




Map Legend


Flown Route
Filed Route
Departure Airport
Arrival Airport
Navaid (VOR, NDB)
Fix

Horizontal Profiles

Position Reports

Time Latitude Longitude Heading Altitude Ground
Speed
30-Dec-20 18:09 33.403380 -118.415573 268 1592ft 0kts
30-Dec-20 18:10 33.403380 -118.415573 268 1592ft 0kts
30-Dec-20 18:11 33.403380 -118.415573 268 1592ft 0kts
30-Dec-20 18:12 33.403380 -118.415573 268 1592ft 0kts
30-Dec-20 18:13 33.403380 -118.415573 268 1592ft 0kts
30-Dec-20 18:15 33.403379 -118.415583 268 1592ft 0kts
30-Dec-20 18:15 33.403379 -118.415583 268 1592ft 0kts
30-Dec-20 18:16 33.403377 -118.415642 268 1593ft 0kts
30-Dec-20 18:17 33.403377 -118.415642 268 1593ft 0kts
30-Dec-20 18:18 33.403472 -118.416277 292 1596ft 12kts
30-Dec-20 18:19 33.406071 -118.413266 53 1568ft 28kts
30-Dec-20 18:20 33.406906 -118.411855 53 1555ft 0kts
30-Dec-20 18:21 33.407341 -118.411786 245 1554ft 6kts
30-Dec-20 18:22 33.398163 -118.428043 240 2159ft 70kts
30-Dec-20 18:23 33.379847 -118.430680 135 2859ft 91kts
30-Dec-20 18:24 33.370374 -118.403437 93 3513ft 92kts
30-Dec-20 18:25 33.367633 -118.371611 90 4088ft 103kts
30-Dec-20 18:26 33.363859 -118.335576 92 4664ft 115kts
30-Dec-20 18:27 33.359077 -118.295870 94 4992ft 126kts
30-Dec-20 18:28 33.353986 -118.254909 94 4985ft 119kts
30-Dec-20 18:29 33.348981 -118.216167 94 4986ft 115kts
30-Dec-20 18:30 33.344005 -118.178244 94 4985ft 114kts
30-Dec-20 18:31 33.339002 -118.140194 94 4985ft 117kts
30-Dec-20 18:32 33.333840 -118.101348 94 4984ft 118kts
30-Dec-20 18:33 33.328635 -118.062253 93 4984ft 118kts
30-Dec-20 18:34 33.323450 -118.023295 93 4982ft 118kts
30-Dec-20 18:35 33.318258 -117.984335 93 4980ft 117kts
30-Dec-20 18:36 33.313120 -117.945875 93 4978ft 116kts
30-Dec-20 18:37 33.307992 -117.907562 93 4976ft 115kts
30-Dec-20 18:38 33.302893 -117.869569 93 4974ft 114kts
30-Dec-20 18:39 33.297791 -117.831646 93 4971ft 114kts
30-Dec-20 18:40 33.292694 -117.793884 93 4970ft 113kts
30-Dec-20 18:41 33.287586 -117.756163 93 4991ft 111kts
30-Dec-20 18:42 33.282190 -117.719451 94 5004ft 112kts
30-Dec-20 18:43 33.276600 -117.682330 94 5002ft 113kts
30-Dec-20 18:44 33.270973 -117.645061 94 5001ft 114kts
30-Dec-20 18:45 33.265285 -117.607458 94 4999ft 114kts
30-Dec-20 18:46 33.259849 -117.569848 92 4998ft 114kts
30-Dec-20 18:47 33.255215 -117.532101 92 4998ft 114kts
30-Dec-20 18:48 33.250620 -117.494460 92 4998ft 114kts
30-Dec-20 18:49 33.245978 -117.456397 92 4971ft 114kts
30-Dec-20 18:50 33.237009 -117.420706 140 4961ft 119kts
30-Dec-20 18:51 33.206996 -117.403952 155 4971ft 119kts
30-Dec-20 18:52 33.175816 -117.390013 157 4971ft 119kts
30-Dec-20 18:53 33.144341 -117.376771 158 4970ft 119kts
30-Dec-20 18:54 33.113020 -117.363602 157 4972ft 119kts
30-Dec-20 18:55 33.081551 -117.350379 157 4972ft 119kts
30-Dec-20 18:56 33.049994 -117.337134 158 4972ft 120kts
30-Dec-20 18:57 33.018137 -117.323767 158 4972ft 121kts
30-Dec-20 18:58 32.986025 -117.310303 158 4973ft 122kts
30-Dec-20 18:59 32.953643 -117.296735 158 4973ft 124kts
30-Dec-20 19:00 32.920810 -117.282987 159 4973ft 125kts
30-Dec-20 19:01 32.888079 -117.269294 159 4969ft 126kts
30-Dec-20 19:02 32.855033 -117.255159 158 4969ft 126kts
30-Dec-20 19:03 32.821989 -117.240197 150 4968ft 128kts
30-Dec-20 19:04 32.808461 -117.204829 101 4985ft 115kts
30-Dec-20 19:05 32.798870 -117.168679 101 4987ft 114kts
30-Dec-20 19:06 32.789364 -117.132602 101 4989ft 113kts
30-Dec-20 19:07 32.779980 -117.096545 101 4989ft 114kts
30-Dec-20 19:08 32.770654 -117.060220 101 4987ft 115kts
30-Dec-20 19:09 32.761421 -117.023552 101 4986ft 116kts
30-Dec-20 19:10 32.752284 -116.986378 101 4985ft 117kts
30-Dec-20 19:11 32.743312 -116.948898 101 4982ft 116kts
30-Dec-20 19:12 32.734673 -116.911861 101 4982ft 116kts
30-Dec-20 19:13 32.726201 -116.874500 103 4980ft 117kts
30-Dec-20 19:14 32.698546 -116.868003 200 4982ft 113kts
30-Dec-20 19:15 32.668916 -116.880169 226 4972ft 109kts
30-Dec-20 19:16 32.661926 -116.914755 287 4432ft 109kts
30-Dec-20 19:17 32.671805 -116.949139 291 3832ft 110kts
30-Dec-20 19:18 32.682011 -116.980512 289 3687ft 102kts
30-Dec-20 19:19 32.690693 -117.014554 288 3201ft 112kts
30-Dec-20 19:20 32.699528 -117.050449 288 2642ft 110kts
30-Dec-20 19:21 32.707626 -117.083367 288 2109ft 97kts
30-Dec-20 19:22 32.714921 -117.113114 287 1505ft 93kts
30-Dec-20 19:23 32.721885 -117.142025 288 804ft 85kts
30-Dec-20 19:24 32.727634 -117.165451 287 385ft 66kts
30-Dec-20 19:25 32.732215 -117.184490 284 20ft 40kts
30-Dec-20 19:26 32.734183 -117.188082 15 20ft 0kts
30-Dec-20 19:28 32.734183 -117.188082 15 20ft 0kts
30-Dec-20 19:29 32.734679 -117.187901 19 20ft 10kts

Navigation Log

Ident Type
Flight plan parsing failed, navigation log unavailable